sensor_id;sensor_type;location;lat;lon;timestamp;P1;durP1;ratioP1;P2;durP2;ratioP2
5483;SDS011;2764;48.794;8.326;2023-07-20T00:00:23;10.37;;;2.60;;
5483;SDS011;2764;48.794;8.326;2023-07-20T00:01:24;2.87;;;2.53;;
5483;SDS011;2764;48.794;8.326;2023-07-20T00:02:26;6.53;;;2.30;;
5483;SDS011;2764;48.794;8.326;2023-07-20T00:03:27;2.40;;;2.23;;
5483;SDS011;2764;48.794;8.326;2023-07-20T00:04:29;1.73;;;1.47;;
5483;SDS011;2764;48.794;8.326;2023-07-20T00:05:31;2.33;;;2.20;;
5483;SDS011;2764;48.794;8.326;2023-07-20T00:06:33;3.73;;;2.97;;
5483;SDS011;2764;48.794;8.326;2023-07-20T00:07:34;2.77;;;2.57;;
5483;SDS011;2764;48.794;8.326;2023-07-20T00:08:36;2.40;;;2.00;;
5483;SDS011;2764;48.794;8.326;2023-07-20T00:09:37;3.40;;;3.10;;
5483;SDS011;2764;48.794;8.326;2023-07-20T00:10:39;2.87;;;2.00;;
5483;SDS011;2764;48.794;8.326;2023-07-20T00:11:47;9.00;;;2.30;;
5483;SDS011;2764;48.794;8.326;2023-07-20T00:12:49;2.30;;;2.10;;
5483;SDS011;2764;48.794;8.326;2023-07-20T00:13:51;2.50;;;2.40;;
5483;SDS011;2764;48.794;8.326;2023-07-20T00:14:52;5.47;;;2.37;;
5483;SDS011;2764;48.794;8.326;2023-07-20T00:15:55;2.73;;;1.80;;
5483;SDS011;2764;48.794;8.326;2023-07-20T00:16:56;3.50;;;2.33;;
5483;SDS011;2764;48.794;8.326;2023-07-20T00:17:58;3.03;;;2.17;;
5483;SDS011;2764;48.794;8.326;2023-07-20T00:18:59;7.33;;;2.60;;
5483;SDS011;2764;48.794;8.326;2023-07-20T00:20:01;5.43;;;2.37;;
5483;SDS011;2764;48.794;8.326;2023-07-20T00:21:03;4.13;;;2.30;;
5483;SDS011;2764;48.794;8.326;2023-07-20T00:22:05;2.40;;;2.20;;
5483;SDS011;2764;48.794;8.326;2023-07-20T00:23:06;2.47;;;2.27;;
5483;SDS011;2764;48.794;8.326;2023-07-20T00:24:08;3.07;;;2.60;;
5483;SDS011;2764;48.794;8.326;2023-07-20T00:25:10;2.87;;;2.03;;
5483;SDS011;2764;48.794;8.326;2023-07-20T00:26:13;5.50;;;2.43;;
5483;SDS011;2764;48.794;8.326;2023-07-20T00:27:14;2.87;;;2.37;;
5483;SDS011;2764;48.794;8.326;2023-07-20T00:28:15;4.77;;;2.50;;
5483;SDS011;2764;48.794;8.326;2023-07-20T00:29:17;3.60;;;2.10;;
5483;SDS011;2764;48.794;8.326;2023-07-20T00:30:19;7.60;;;2.00;;
5483;SDS011;2764;48.794;8.326;2023-07-20T00:31:20;3.83;;;2.63;;
5483;SDS011;2764;48.794;8.326;2023-07-20T00:32:22;4.13;;;2.00;;
5483;SDS011;2764;48.794;8.326;2023-07-20T00:33:24;2.63;;;2.20;;
5483;SDS011;2764;48.794;8.326;2023-07-20T00:34:25;8.43;;;2.63;;
5483;SDS011;2764;48.794;8.326;2023-07-20T00:35:27;3.23;;;2.63;;
5483;SDS011;2764;48.794;8.326;2023-07-20T00:36:29;4.00;;;2.47;;
5483;SDS011;2764;48.794;8.326;2023-07-20T00:37:30;2.00;;;1.90;;
5483;SDS011;2764;48.794;8.326;2023-07-20T00:38:32;4.67;;;2.37;;
5483;SDS011;2764;48.794;8.326;2023-07-20T00:39:33;18.03;;;3.20;;
5483;SDS011;2764;48.794;8.326;2023-07-20T00:40:35;4.87;;;2.50;;
5483;SDS011;2764;48.794;8.326;2023-07-20T00:41:37;3.03;;;2.50;;
5483;SDS011;2764;48.794;8.326;2023-07-20T00:42:39;3.43;;;2.70;;
5483;SDS011;2764;48.794;8.326;2023-07-20T00:43:40;2.60;;;2.23;;
5483;SDS011;2764;48.794;8.326;2023-07-20T00:44:42;2.70;;;2.50;;
5483;SDS011;2764;48.794;8.326;2023-07-20T00:45:43;2.83;;;2.60;;
5483;SDS011;2764;48.794;8.326;2023-07-20T00:46:45;3.17;;;2.57;;
5483;SDS011;2764;48.794;8.326;2023-07-20T00:47:48;2.40;;;2.20;;
5483;SDS011;2764;48.794;8.326;2023-07-20T00:48:49;3.20;;;2.87;;
5483;SDS011;2764;48.794;8.326;2023-07-20T00:49:51;9.70;;;2.60;;
5483;SDS011;2764;48.794;8.326;2023-07-20T00:50:53;10.70;;;2.60;;
5483;SDS011;2764;48.794;8.326;2023-07-20T00:51:54;2.80;;;2.13;;
5483;SDS011;2764;48.794;8.326;2023-07-20T00:52:56;6.30;;;2.43;;
5483;SDS011;2764;48.794;8.326;2023-07-20T00:53:58;3.03;;;2.73;;
5483;SDS011;2764;48.794;8.326;2023-07-20T00:54:59;2.37;;;2.17;;
5483;SDS011;2764;48.794;8.326;2023-07-20T00:56:02;2.97;;;2.30;;
5483;SDS011;2764;48.794;8.326;2023-07-20T00:57:04;3.17;;;2.30;;
5483;SDS011;2764;48.794;8.326;2023-07-20T00:58:08;5.40;;;2.40;;
5483;SDS011;2764;48.794;8.326;2023-07-20T00:59:11;3.10;;;2.43;;
5483;SDS011;2764;48.794;8.326;2023-07-20T01:00:12;2.47;;;2.10;;
5483;SDS011;2764;48.794;8.326;2023-07-20T01:01:14;4.23;;;2.80;;
5483;SDS011;2764;48.794;8.326;2023-07-20T01:02:16;4.23;;;2.70;;
5483;SDS011;2764;48.794;8.326;2023-07-20T01:03:17;6.83;;;2.77;;
5483;SDS011;2764;48.794;8.326;2023-07-20T01:04:19;3.23;;;2.53;;
5483;SDS011;2764;48.794;8.326;2023-07-20T01:05:21;2.73;;;2.20;;
5483;SDS011;2764;48.794;8.326;2023-07-20T01:06:24;6.63;;;2.77;;
5483;SDS011;2764;48.794;8.326;2023-07-20T01:07:31;2.27;;;2.10;;
5483;SDS011;2764;48.794;8.326;2023-07-20T01:08:43;3.57;;;2.53;;
5483;SDS011;2764;48.794;8.326;2023-07-20T01:10:51;2.40;;;2.10;;
5483;SDS011;2764;48.794;8.326;2023-07-20T01:11:59;2.27;;;2.07;;
5483;SDS011;2764;48.794;8.326;2023-07-20T01:13:04;11.33;;;3.03;;
5483;SDS011;2764;48.794;8.326;2023-07-20T01:14:07;5.03;;;2.67;;
5483;SDS011;2764;48.794;8.326;2023-07-20T01:15:10;2.80;;;2.60;;
5483;SDS011;2764;48.794;8.326;2023-07-20T01:16:12;2.80;;;2.60;;
5483;SDS011;2764;48.794;8.326;2023-07-20T01:17:13;2.93;;;2.50;;
5483;SDS011;2764;48.794;8.326;2023-07-20T01:18:15;3.37;;;2.40;;
5483;SDS011;2764;48.794;8.326;2023-07-20T01:19:16;5.87;;;3.47;;
5483;SDS011;2764;48.794;8.326;2023-07-20T01:20:19;6.00;;;2.80;;
5483;SDS011;2764;48.794;8.326;2023-07-20T01:21:24;3.87;;;2.63;;
5483;SDS011;2764;48.794;8.326;2023-07-20T01:25:42;11.93;;;3.00;;
5483;SDS011;2764;48.794;8.326;2023-07-20T01:26:45;4.80;;;2.80;;
5483;SDS011;2764;48.794;8.326;2023-07-20T01:31:21;2.67;;;2.57;;
5483;SDS011;2764;48.794;8.326;2023-07-20T01:32:23;2.97;;;2.67;;
5483;SDS011;2764;48.794;8.326;2023-07-20T01:33:26;5.80;;;2.63;;
5483;SDS011;2764;48.794;8.326;2023-07-20T01:34:29;5.00;;;2.70;;
5483;SDS011;2764;48.794;8.326;2023-07-20T01:35:31;3.30;;;2.73;;
5483;SDS011;2764;48.794;8.326;2023-07-20T01:36:34;3.37;;;2.70;;
5483;SDS011;2764;48.794;8.326;2023-07-20T01:37:37;5.00;;;2.97;;
5483;SDS011;2764;48.794;8.326;2023-07-20T01:38:39;3.47;;;3.03;;
5483;SDS011;2764;48.794;8.326;2023-07-20T01:39:40;6.57;;;3.07;;
5483;SDS011;2764;48.794;8.326;2023-07-20T01:40:42;2.83;;;2.63;;
5483;SDS011;2764;48.794;8.326;2023-07-20T01:41:44;3.17;;;2.60;;
5483;SDS011;2764;48.794;8.326;2023-07-20T01:42:46;6.07;;;3.00;;
5483;SDS011;2764;48.794;8.326;2023-07-20T01:43:48;3.30;;;2.97;;
5483;SDS011;2764;48.794;8.326;2023-07-20T01:44:50;7.80;;;3.17;;
5483;SDS011;2764;48.794;8.326;2023-07-20T01:45:52;4.00;;;2.83;;
5483;SDS011;2764;48.794;8.326;2023-07-20T01:46:54;3.00;;;2.80;;
5483;SDS011;2764;48.794;8.326;2023-07-20T01:47:55;2.67;;;2.57;;
5483;SDS011;2764;48.794;8.326;2023-07-20T01:48:57;8.00;;;3.60;;
5483;SDS011;2764;48.794;8.326;2023-07-20T01:49:58;12.03;;;3.50;;
5483;SDS011;2764;48.794;8.326;2023-07-20T01:51:00;3.63;;;3.33;;
5483;SDS011;2764;48.794;8.326;2023-07-20T01:52:02;6.63;;;3.40;;
5483;SDS011;2764;48.794;8.326;2023-07-20T01:53:03;3.57;;;3.23;;
5483;SDS011;2764;48.794;8.326;2023-07-20T01:54:05;3.33;;;3.10;;
5483;SDS011;2764;48.794;8.326;2023-07-20T01:55:06;5.77;;;2.60;;
5483;SDS011;2764;48.794;8.326;2023-07-20T01:56:08;4.23;;;3.47;;
5483;SDS011;2764;48.794;8.326;2023-07-20T01:57:10;5.10;;;3.17;;
5483;SDS011;2764;48.794;8.326;2023-07-20T01:58:11;6.90;;;3.50;;
5483;SDS011;2764;48.794;8.326;2023-07-20T01:59:13;3.63;;;2.97;;
5483;SDS011;2764;48.794;8.326;2023-07-20T02:00:14;4.73;;;3.00;;
5483;SDS011;2764;48.794;8.326;2023-07-20T02:01:16;5.83;;;2.70;;
5483;SDS011;2764;48.794;8.326;2023-07-20T02:02:18;3.13;;;2.93;;
5483;SDS011;2764;48.794;8.326;2023-07-20T02:03:19;3.07;;;2.87;;
5483;SDS011;2764;48.794;8.326;2023-07-20T02:04:23;4.30;;;2.80;;
5483;SDS011;2764;48.794;8.326;2023-07-20T02:05:24;7.87;;;3.73;;
5483;SDS011;2764;48.794;8.326;2023-07-20T02:06:27;6.57;;;3.33;;
5483;SDS011;2764;48.794;8.326;2023-07-20T02:07:28;3.60;;;3.30;;
5483;SDS011;2764;48.794;8.326;2023-07-20T02:08:30;5.50;;;3.00;;
5483;SDS011;2764;48.794;8.326;2023-07-20T02:09:32;3.73;;;3.40;;
5483;SDS011;2764;48.794;8.326;2023-07-20T02:10:34;3.17;;;2.80;;
5483;SDS011;2764;48.794;8.326;2023-07-20T02:11:35;5.30;;;2.90;;
5483;SDS011;2764;48.794;8.326;2023-07-20T02:12:37;10.13;;;2.73;;
5483;SDS011;2764;48.794;8.326;2023-07-20T02:13:38;3.67;;;3.40;;
5483;SDS011;2764;48.794;8.326;2023-07-20T02:14:40;5.50;;;3.53;;
5483;SDS011;2764;48.794;8.326;2023-07-20T02:15:42;9.73;;;3.90;;
5483;SDS011;2764;48.794;8.326;2023-07-20T02:16:44;3.60;;;3.20;;
5483;SDS011;2764;48.794;8.326;2023-07-20T02:17:45;3.87;;;3.37;;
5483;SDS011;2764;48.794;8.326;2023-07-20T02:18:47;6.07;;;3.67;;
5483;SDS011;2764;48.794;8.326;2023-07-20T02:19:55;6.50;;;3.60;;
5483;SDS011;2764;48.794;8.326;2023-07-20T02:20:57;3.73;;;3.10;;
5483;SDS011;2764;48.794;8.326;2023-07-20T02:21:59;5.03;;;3.80;;
5483;SDS011;2764;48.794;8.326;2023-07-20T02:23:00;16.77;;;3.70;;
5483;SDS011;2764;48.794;8.326;2023-07-20T02:24:02;8.10;;;3.60;;
5483;SDS011;2764;48.794;8.326;2023-07-20T02:25:04;5.27;;;3.50;;
5483;SDS011;2764;48.794;8.326;2023-07-20T02:26:06;3.80;;;3.27;;
5483;SDS011;2764;48.794;8.326;2023-07-20T02:27:07;4.37;;;2.87;;
5483;SDS011;2764;48.794;8.326;2023-07-20T02:28:10;3.87;;;3.40;;
5483;SDS011;2764;48.794;8.326;2023-07-20T02:29:13;8.40;;;3.27;;
5483;SDS011;2764;48.794;8.326;2023-07-20T02:30:14;3.40;;;3.20;;
5483;SDS011;2764;48.794;8.326;2023-07-20T02:31:17;6.53;;;3.37;;
5483;SDS011;2764;48.794;8.326;2023-07-20T02:32:19;4.50;;;3.23;;
5483;SDS011;2764;48.794;8.326;2023-07-20T02:33:21;8.67;;;3.00;;
5483;SDS011;2764;48.794;8.326;2023-07-20T02:34:23;5.13;;;3.40;;
5483;SDS011;2764;48.794;8.326;2023-07-20T02:35:24;4.73;;;4.33;;
5483;SDS011;2764;48.794;8.326;2023-07-20T02:36:26;7.30;;;4.53;;
5483;SDS011;2764;48.794;8.326;2023-07-20T02:37:27;5.33;;;3.63;;
5483;SDS011;2764;48.794;8.326;2023-07-20T02:38:29;9.40;;;4.20;;
5483;SDS011;2764;48.794;8.326;2023-07-20T02:39:30;5.13;;;3.00;;
5483;SDS011;2764;48.794;8.326;2023-07-20T02:40:32;6.33;;;2.97;;
5483;SDS011;2764;48.794;8.326;2023-07-20T02:41:34;4.40;;;3.67;;
5483;SDS011;2764;48.794;8.326;2023-07-20T02:42:35;3.10;;;2.90;;
5483;SDS011;2764;48.794;8.326;2023-07-20T02:43:37;8.50;;;3.60;;
5483;SDS011;2764;48.794;8.326;2023-07-20T02:44:38;8.20;;;3.43;;
5483;SDS011;2764;48.794;8.326;2023-07-20T02:45:40;4.77;;;3.30;;
5483;SDS011;2764;48.794;8.326;2023-07-20T02:46:43;3.80;;;3.50;;
5483;SDS011;2764;48.794;8.326;2023-07-20T02:47:44;3.80;;;3.50;;
5483;SDS011;2764;48.794;8.326;2023-07-20T02:48:46;6.00;;;3.20;;
5483;SDS011;2764;48.794;8.326;2023-07-20T02:49:47;3.77;;;3.47;;
5483;SDS011;2764;48.794;8.326;2023-07-20T02:50:49;8.00;;;3.93;;
5483;SDS011;2764;48.794;8.326;2023-07-20T02:51:50;4.80;;;3.00;;
5483;SDS011;2764;48.794;8.326;2023-07-20T02:52:52;10.53;;;3.37;;
5483;SDS011;2764;48.794;8.326;2023-07-20T02:53:53;5.80;;;3.50;;
5483;SDS011;2764;48.794;8.326;2023-07-20T02:54:55;7.80;;;3.83;;
5483;SDS011;2764;48.794;8.326;2023-07-20T02:55:56;3.83;;;3.53;;
5483;SDS011;2764;48.794;8.326;2023-07-20T02:56:58;6.83;;;3.80;;
5483;SDS011;2764;48.794;8.326;2023-07-20T02:58:00;5.60;;;3.90;;
5483;SDS011;2764;48.794;8.326;2023-07-20T02:59:01;3.50;;;3.20;;
5483;SDS011;2764;48.794;8.326;2023-07-20T03:00:03;3.67;;;3.37;;
5483;SDS011;2764;48.794;8.326;2023-07-20T03:01:07;3.77;;;3.47;;
5483;SDS011;2764;48.794;8.326;2023-07-20T03:02:08;4.30;;;2.93;;
5483;SDS011;2764;48.794;8.326;2023-07-20T03:03:13;4.23;;;3.83;;
5483;SDS011;2764;48.794;8.326;2023-07-20T03:04:15;8.00;;;3.20;;
5483;SDS011;2764;48.794;8.326;2023-07-20T03:05:17;3.90;;;3.50;;
5483;SDS011;2764;48.794;8.326;2023-07-20T03:06:19;7.63;;;2.90;;
5483;SDS011;2764;48.794;8.326;2023-07-20T03:07:20;5.50;;;3.30;;
5483;SDS011;2764;48.794;8.326;2023-07-20T03:08:22;5.57;;;3.43;;
5483;SDS011;2764;48.794;8.326;2023-07-20T03:09:24;4.50;;;3.57;;
5483;SDS011;2764;48.794;8.326;2023-07-20T03:10:27;5.27;;;3.80;;
5483;SDS011;2764;48.794;8.326;2023-07-20T03:11:28;4.00;;;3.67;;
5483;SDS011;2764;48.794;8.326;2023-07-20T03:12:30;8.80;;;4.10;;
5483;SDS011;2764;48.794;8.326;2023-07-20T03:13:32;8.20;;;3.33;;
5483;SDS011;2764;48.794;8.326;2023-07-20T03:14:33;7.60;;;3.97;;
5483;SDS011;2764;48.794;8.326;2023-07-20T03:15:35;4.40;;;3.23;;
5483;SDS011;2764;48.794;8.326;2023-07-20T03:16:36;6.07;;;3.90;;
5483;SDS011;2764;48.794;8.326;2023-07-20T03:17:38;9.20;;;3.57;;
5483;SDS011;2764;48.794;8.326;2023-07-20T03:18:43;3.80;;;3.60;;
5483;SDS011;2764;48.794;8.326;2023-07-20T03:19:45;6.10;;;4.03;;
5483;SDS011;2764;48.794;8.326;2023-07-20T03:20:47;7.00;;;4.13;;
5483;SDS011;2764;48.794;8.326;2023-07-20T03:21:49;6.23;;;3.90;;
5483;SDS011;2764;48.794;8.326;2023-07-20T03:22:51;10.40;;;4.43;;
5483;SDS011;2764;48.794;8.326;2023-07-20T03:23:53;7.00;;;4.13;;
5483;SDS011;2764;48.794;8.326;2023-07-20T03:24:54;4.43;;;3.40;;
5483;SDS011;2764;48.794;8.326;2023-07-20T03:25:56;4.03;;;3.50;;
5483;SDS011;2764;48.794;8.326;2023-07-20T03:26:57;3.73;;;3.43;;
5483;SDS011;2764;48.794;8.326;2023-07-20T03:27:59;4.20;;;3.10;;
5483;SDS011;2764;48.794;8.326;2023-07-20T03:29:00;3.30;;;3.00;;
5483;SDS011;2764;48.794;8.326;2023-07-20T03:30:02;7.80;;;3.93;;
5483;SDS011;2764;48.794;8.326;2023-07-20T03:31:04;3.80;;;3.57;;
5483;SDS011;2764;48.794;8.326;2023-07-20T03:32:06;6.80;;;3.90;;
5483;SDS011;2764;48.794;8.326;2023-07-20T03:33:08;15.13;;;4.17;;
5483;SDS011;2764;48.794;8.326;2023-07-20T03:34:09;7.93;;;3.67;;
5483;SDS011;2764;48.794;8.326;2023-07-20T03:35:12;6.00;;;3.40;;
5483;SDS011;2764;48.794;8.326;2023-07-20T03:36:14;8.33;;;3.70;;
5483;SDS011;2764;48.794;8.326;2023-07-20T03:37:15;3.90;;;3.60;;
5483;SDS011;2764;48.794;8.326;2023-07-20T03:38:18;3.90;;;3.60;;
5483;SDS011;2764;48.794;8.326;2023-07-20T03:39:20;5.77;;;3.67;;
5483;SDS011;2764;48.794;8.326;2023-07-20T03:40:23;3.77;;;3.47;;
5483;SDS011;2764;48.794;8.326;2023-07-20T03:41:25;8.70;;;4.00;;
5483;SDS011;2764;48.794;8.326;2023-07-20T03:42:26;5.60;;;4.30;;
5483;SDS011;2764;48.794;8.326;2023-07-20T03:43:28;8.60;;;3.90;;
5483;SDS011;2764;48.794;8.326;2023-07-20T03:44:30;5.13;;;3.93;;
5483;SDS011;2764;48.794;8.326;2023-07-20T03:45:32;6.27;;;3.13;;
5483;SDS011;2764;48.794;8.326;2023-07-20T03:46:33;4.53;;;3.40;;
5483;SDS011;2764;48.794;8.326;2023-07-20T03:47:35;4.20;;;3.80;;
5483;SDS011;2764;48.794;8.326;2023-07-20T03:48:37;5.50;;;3.97;;
5483;SDS011;2764;48.794;8.326;2023-07-20T03:49:39;7.10;;;3.83;;
5483;SDS011;2764;48.794;8.326;2023-07-20T03:50:40;5.30;;;3.60;;
5483;SDS011;2764;48.794;8.326;2023-07-20T03:51:42;6.40;;;3.60;;
5483;SDS011;2764;48.794;8.326;2023-07-20T03:52:43;5.73;;;3.47;;
5483;SDS011;2764;48.794;8.326;2023-07-20T03:53:45;12.27;;;4.80;;
5483;SDS011;2764;48.794;8.326;2023-07-20T03:54:46;5.87;;;3.87;;
5483;SDS011;2764;48.794;8.326;2023-07-20T03:55:48;4.17;;;3.73;;
5483;SDS011;2764;48.794;8.326;2023-07-20T03:56:50;5.40;;;3.70;;
5483;SDS011;2764;48.794;8.326;2023-07-20T03:57:52;11.00;;;4.10;;
5483;SDS011;2764;48.794;8.326;2023-07-20T03:58:53;4.87;;;3.67;;
5483;SDS011;2764;48.794;8.326;2023-07-20T03:59:55;4.70;;;3.43;;
5483;SDS011;2764;48.794;8.326;2023-07-20T04:00:57;4.73;;;3.90;;
5483;SDS011;2764;48.794;8.326;2023-07-20T04:01:58;4.00;;;3.67;;
5483;SDS011;2764;48.794;8.326;2023-07-20T04:03:00;12.60;;;3.67;;
5483;SDS011;2764;48.794;8.326;2023-07-20T04:04:05;7.33;;;3.77;;
5483;SDS011;2764;48.794;8.326;2023-07-20T04:05:07;9.10;;;4.47;;
5483;SDS011;2764;48.794;8.326;2023-07-20T04:06:09;8.40;;;4.33;;
5483;SDS011;2764;48.794;8.326;2023-07-20T04:07:11;5.07;;;3.57;;
5483;SDS011;2764;48.794;8.326;2023-07-20T04:08:12;7.60;;;4.10;;
5483;SDS011;2764;48.794;8.326;2023-07-20T04:09:14;6.93;;;3.77;;
5483;SDS011;2764;48.794;8.326;2023-07-20T04:10:15;3.33;;;2.93;;
5483;SDS011;2764;48.794;8.326;2023-07-20T04:11:17;5.87;;;3.97;;
5483;SDS011;2764;48.794;8.326;2023-07-20T04:12:19;4.80;;;3.53;;
5483;SDS011;2764;48.794;8.326;2023-07-20T04:13:21;4.17;;;3.77;;
5483;SDS011;2764;48.794;8.326;2023-07-20T04:14:23;3.63;;;3.37;;
5483;SDS011;2764;48.794;8.326;2023-07-20T04:15:24;4.00;;;3.60;;
5483;SDS011;2764;48.794;8.326;2023-07-20T04:16:26;10.73;;;3.77;;
5483;SDS011;2764;48.794;8.326;2023-07-20T04:17:28;3.60;;;3.27;;
5483;SDS011;2764;48.794;8.326;2023-07-20T04:18:30;3.70;;;3.47;;
5483;SDS011;2764;48.794;8.326;2023-07-20T04:19:32;5.90;;;3.30;;
5483;SDS011;2764;48.794;8.326;2023-07-20T04:20:33;8.60;;;3.60;;
5483;SDS011;2764;48.794;8.326;2023-07-20T04:21:39;4.87;;;3.50;;
5483;SDS011;2764;48.794;8.326;2023-07-20T04:22:40;6.47;;;3.50;;
5483;SDS011;2764;48.794;8.326;2023-07-20T04:23:42;6.33;;;3.60;;
5483;SDS011;2764;48.794;8.326;2023-07-20T04:24:43;3.77;;;3.33;;
5483;SDS011;2764;48.794;8.326;2023-07-20T04:25:45;5.00;;;3.30;;
5483;SDS011;2764;48.794;8.326;2023-07-20T04:26:47;4.20;;;3.80;;
5483;SDS011;2764;48.794;8.326;2023-07-20T04:27:48;4.67;;;3.90;;
5483;SDS011;2764;48.794;8.326;2023-07-20T04:28:50;3.60;;;3.17;;
5483;SDS011;2764;48.794;8.326;2023-07-20T04:29:52;5.03;;;3.73;;
5483;SDS011;2764;48.794;8.326;2023-07-20T04:30:54;5.40;;;4.30;;
5483;SDS011;2764;48.794;8.326;2023-07-20T04:31:56;4.20;;;3.70;;
5483;SDS011;2764;48.794;8.326;2023-07-20T04:32:57;12.37;;;3.60;;
5483;SDS011;2764;48.794;8.326;2023-07-20T04:33:59;7.60;;;4.60;;
5483;SDS011;2764;48.794;8.326;2023-07-20T04:35:00;6.53;;;3.90;;
5483;SDS011;2764;48.794;8.326;2023-07-20T04:36:02;5.43;;;3.77;;
5483;SDS011;2764;48.794;8.326;2023-07-20T04:37:04;6.17;;;3.60;;
5483;SDS011;2764;48.794;8.326;2023-07-20T04:38:05;4.67;;;3.50;;
5483;SDS011;2764;48.794;8.326;2023-07-20T04:39:07;6.50;;;3.47;;
5483;SDS011;2764;48.794;8.326;2023-07-20T04:40:29;5.57;;;3.73;;
5483;SDS011;2764;48.794;8.326;2023-07-20T04:41:31;6.97;;;4.40;;
5483;SDS011;2764;48.794;8.326;2023-07-20T04:42:34;10.00;;;5.33;;
5483;SDS011;2764;48.794;8.326;2023-07-20T04:43:36;7.23;;;4.20;;
5483;SDS011;2764;48.794;8.326;2023-07-20T04:44:37;6.20;;;4.10;;
5483;SDS011;2764;48.794;8.326;2023-07-20T04:45:39;3.83;;;3.53;;
5483;SDS011;2764;48.794;8.326;2023-07-20T04:46:41;4.93;;;4.33;;
5483;SDS011;2764;48.794;8.326;2023-07-20T04:47:46;3.60;;;3.30;;
5483;SDS011;2764;48.794;8.326;2023-07-20T04:48:48;6.23;;;3.77;;
5483;SDS011;2764;48.794;8.326;2023-07-20T04:49:49;8.37;;;4.37;;
5483;SDS011;2764;48.794;8.326;2023-07-20T04:50:51;10.77;;;3.80;;
5483;SDS011;2764;48.794;8.326;2023-07-20T04:51:53;10.80;;;4.30;;
5483;SDS011;2764;48.794;8.326;2023-07-20T04:52:54;9.53;;;3.60;;
5483;SDS011;2764;48.794;8.326;2023-07-20T04:53:56;5.43;;;3.70;;
5483;SDS011;2764;48.794;8.326;2023-07-20T04:54:57;4.30;;;3.83;;
5483;SDS011;2764;48.794;8.326;2023-07-20T04:55:59;9.43;;;4.27;;
5483;SDS011;2764;48.794;8.326;2023-07-20T04:57:00;3.93;;;3.43;;
5483;SDS011;2764;48.794;8.326;2023-07-20T04:58:02;3.70;;;3.50;;
5483;SDS011;2764;48.794;8.326;2023-07-20T04:59:04;9.27;;;3.87;;
5483;SDS011;2764;48.794;8.326;2023-07-20T05:00:06;5.57;;;3.23;;
5483;SDS011;2764;48.794;8.326;2023-07-20T05:01:08;4.63;;;3.93;;
5483;SDS011;2764;48.794;8.326;2023-07-20T05:02:09;6.77;;;4.73;;
5483;SDS011;2764;48.794;8.326;2023-07-20T05:03:11;6.87;;;3.70;;
5483;SDS011;2764;48.794;8.326;2023-07-20T05:04:12;7.00;;;3.00;;
5483;SDS011;2764;48.794;8.326;2023-07-20T05:05:16;5.33;;;3.70;;
5483;SDS011;2764;48.794;8.326;2023-07-20T05:06:18;5.40;;;3.53;;
5483;SDS011;2764;48.794;8.326;2023-07-20T05:07:19;4.30;;;3.53;;
5483;SDS011;2764;48.794;8.326;2023-07-20T05:08:21;8.27;;;4.07;;
5483;SDS011;2764;48.794;8.326;2023-07-20T05:09:25;6.23;;;4.00;;
5483;SDS011;2764;48.794;8.326;2023-07-20T05:10:27;5.63;;;3.80;;
5483;SDS011;2764;48.794;8.326;2023-07-20T05:11:28;9.60;;;4.43;;
5483;SDS011;2764;48.794;8.326;2023-07-20T05:12:30;10.33;;;4.47;;
5483;SDS011;2764;48.794;8.326;2023-07-20T05:13:31;9.23;;;3.87;;
5483;SDS011;2764;48.794;8.326;2023-07-20T05:14:33;9.57;;;3.70;;
5483;SDS011;2764;48.794;8.326;2023-07-20T05:15:34;9.20;;;4.03;;
5483;SDS011;2764;48.794;8.326;2023-07-20T05:16:36;4.20;;;3.70;;
5483;SDS011;2764;48.794;8.326;2023-07-20T05:17:38;4.57;;;3.90;;
5483;SDS011;2764;48.794;8.326;2023-07-20T05:18:41;6.40;;;4.83;;
5483;SDS011;2764;48.794;8.326;2023-07-20T05:19:42;8.87;;;4.87;;
5483;SDS011;2764;48.794;8.326;2023-07-20T05:20:48;9.77;;;4.30;;
5483;SDS011;2764;48.794;8.326;2023-07-20T05:21:50;10.43;;;5.10;;
5483;SDS011;2764;48.794;8.326;2023-07-20T05:22:51;9.73;;;4.33;;
5483;SDS011;2764;48.794;8.326;2023-07-20T05:23:54;8.20;;;4.30;;
5483;SDS011;2764;48.794;8.326;2023-07-20T05:24:55;7.30;;;4.60;;
5483;SDS011;2764;48.794;8.326;2023-07-20T05:25:58;7.93;;;4.00;;
5483;SDS011;2764;48.794;8.326;2023-07-20T05:26:59;4.83;;;4.00;;
5483;SDS011;2764;48.794;8.326;2023-07-20T05:28:01;14.80;;;4.40;;
5483;SDS011;2764;48.794;8.326;2023-07-20T05:29:02;8.90;;;4.30;;
5483;SDS011;2764;48.794;8.326;2023-07-20T05:30:04;7.27;;;4.27;;
5483;SDS011;2764;48.794;8.326;2023-07-20T05:31:06;8.67;;;4.93;;
5483;SDS011;2764;48.794;8.326;2023-07-20T05:32:08;4.70;;;3.07;;
5483;SDS011;2764;48.794;8.326;2023-07-20T05:33:09;8.03;;;3.90;;
5483;SDS011;2764;48.794;8.326;2023-07-20T05:34:11;6.23;;;3.50;;
5483;SDS011;2764;48.794;8.326;2023-07-20T05:35:13;5.03;;;3.60;;
5483;SDS011;2764;48.794;8.326;2023-07-20T05:36:15;5.33;;;3.07;;
5483;SDS011;2764;48.794;8.326;2023-07-20T05:37:16;4.57;;;2.77;;
5483;SDS011;2764;48.794;8.326;2023-07-20T05:38:18;6.83;;;3.53;;
5483;SDS011;2764;48.794;8.326;2023-07-20T05:39:20;3.73;;;3.20;;
5483;SDS011;2764;48.794;8.326;2023-07-20T05:40:21;8.53;;;4.03;;
5483;SDS011;2764;48.794;8.326;2023-07-20T05:41:23;3.33;;;3.03;;
5483;SDS011;2764;48.794;8.326;2023-07-20T05:42:24;9.77;;;3.60;;
5483;SDS011;2764;48.794;8.326;2023-07-20T05:43:26;15.33;;;4.40;;
5483;SDS011;2764;48.794;8.326;2023-07-20T05:44:28;4.10;;;3.70;;
5483;SDS011;2764;48.794;8.326;2023-07-20T05:45:29;4.07;;;3.50;;
5483;SDS011;2764;48.794;8.326;2023-07-20T05:46:31;6.97;;;3.73;;
5483;SDS011;2764;48.794;8.326;2023-07-20T05:47:51;10.60;;;4.73;;
5483;SDS011;2764;48.794;8.326;2023-07-20T05:48:53;10.03;;;3.63;;
5483;SDS011;2764;48.794;8.326;2023-07-20T05:49:54;5.43;;;3.80;;
5483;SDS011;2764;48.794;8.326;2023-07-20T05:50:56;6.50;;;3.30;;
5483;SDS011;2764;48.794;8.326;2023-07-20T05:51:58;7.00;;;3.70;;
5483;SDS011;2764;48.794;8.326;2023-07-20T05:52:59;7.23;;;3.70;;
5483;SDS011;2764;48.794;8.326;2023-07-20T05:54:01;5.23;;;3.30;;
5483;SDS011;2764;48.794;8.326;2023-07-20T05:55:03;5.97;;;3.50;;
5483;SDS011;2764;48.794;8.326;2023-07-20T05:56:05;4.87;;;3.30;;
5483;SDS011;2764;48.794;8.326;2023-07-20T05:57:07;5.30;;;3.70;;
5483;SDS011;2764;48.794;8.326;2023-07-20T05:58:09;7.47;;;3.60;;
5483;SDS011;2764;48.794;8.326;2023-07-20T05:59:10;7.30;;;3.33;;
5483;SDS011;2764;48.794;8.326;2023-07-20T06:00:12;5.17;;;3.00;;
5483;SDS011;2764;48.794;8.326;2023-07-20T06:01:15;8.53;;;4.13;;
5483;SDS011;2764;48.794;8.326;2023-07-20T06:02:17;5.70;;;3.30;;
5483;SDS011;2764;48.794;8.326;2023-07-20T06:03:19;6.30;;;3.70;;
5483;SDS011;2764;48.794;8.326;2023-07-20T06:04:23;6.37;;;3.80;;
5483;SDS011;2764;48.794;8.326;2023-07-20T06:05:24;3.80;;;3.20;;
5483;SDS011;2764;48.794;8.326;2023-07-20T06:06:29;5.20;;;3.27;;
5483;SDS011;2764;48.794;8.326;2023-07-20T06:07:31;12.20;;;3.40;;
5483;SDS011;2764;48.794;8.326;2023-07-20T06:08:33;4.80;;;3.47;;
5483;SDS011;2764;48.794;8.326;2023-07-20T06:09:34;10.70;;;3.97;;
5483;SDS011;2764;48.794;8.326;2023-07-20T06:10:37;4.33;;;3.17;;
5483;SDS011;2764;48.794;8.326;2023-07-20T06:11:38;4.17;;;3.63;;
5483;SDS011;2764;48.794;8.326;2023-07-20T06:12:40;5.53;;;3.33;;
5483;SDS011;2764;48.794;8.326;2023-07-20T06:13:42;4.30;;;3.10;;
5483;SDS011;2764;48.794;8.326;2023-07-20T06:14:45;4.00;;;3.27;;
5483;SDS011;2764;48.794;8.326;2023-07-20T06:15:46;7.17;;;4.17;;
5483;SDS011;2764;48.794;8.326;2023-07-20T06:16:48;10.20;;;3.30;;
5483;SDS011;2764;48.794;8.326;2023-07-20T06:17:53;5.43;;;3.67;;
5483;SDS011;2764;48.794;8.326;2023-07-20T06:18:55;3.80;;;3.50;;
5483;SDS011;2764;48.794;8.326;2023-07-20T06:19:57;4.43;;;3.60;;
5483;SDS011;2764;48.794;8.326;2023-07-20T06:20:58;5.73;;;3.20;;
5483;SDS011;2764;48.794;8.326;2023-07-20T06:22:00;5.70;;;2.93;;
5483;SDS011;2764;48.794;8.326;2023-07-20T06:23:02;6.63;;;3.57;;
5483;SDS011;2764;48.794;8.326;2023-07-20T06:24:03;9.00;;;3.40;;
5483;SDS011;2764;48.794;8.326;2023-07-20T06:25:05;4.47;;;3.00;;
5483;SDS011;2764;48.794;8.326;2023-07-20T06:26:07;2.67;;;2.50;;
5483;SDS011;2764;48.794;8.326;2023-07-20T06:27:08;2.90;;;2.70;;
5483;SDS011;2764;48.794;8.326;2023-07-20T06:28:10;19.77;;;3.93;;
5483;SDS011;2764;48.794;8.326;2023-07-20T06:29:12;4.20;;;2.70;;
5483;SDS011;2764;48.794;8.326;2023-07-20T06:30:13;8.57;;;3.27;;
5483;SDS011;2764;48.794;8.326;2023-07-20T06:31:16;3.33;;;2.77;;
5483;SDS011;2764;48.794;8.326;2023-07-20T06:32:18;4.10;;;3.37;;
5483;SDS011;2764;48.794;8.326;2023-07-20T06:33:19;4.47;;;2.97;;